San Antonio, Texas
Traffic Map
Current Weather Conditions
San Antonio, Texas
Clear
Clear
43°
Feels Like: 40°
Wind Chill: 40° Ceiling: Unl
Heat Index: 43° Visibility: 10mi
Dew Point: 22° Wind: 5mph
Humidity: 42% Direction: ° ()
Pressure: 30.59in Gusts: 0mph
Raw Report DataKSKF 061658Z AUTO VRB04KT 10SM CLR 06/M06 A3059 RMK AO2 SLP364 T00621058 $
Traffic Incident Summary
Active as of:
Severity:
Category:
InformationThere was an issue retrieving the traffic information for this location. Please try a different location or try again shortly.
Advertisements
Track Severe Weather on mobile